Time;durP1;ratioP1;P1;durP2;ratioP2;P2;SDS_P1;SDS_P2;PMS_P1;PMS_P2;Temp;Humidity;BMP_temperature;BMP_pressure;BME280_temperature;BME280_humidity;BME280_pressure;Samples;Min_cycle;Max_cycle;Signal;HPM_P1;HPM_P2
2021/05/04 00:02:09;;;;;;;5.23;3.10;;;9.90;1.00;;;;;;5069109;28;20654;-61
2021/05/04 00:04:34;;;;;;;3.30;3.00;;;9.90;1.00;;;;;;5069994;28;20646;-60
2021/05/04 00:07:00;;;;;;;7.03;3.50;;;9.90;1.00;;;;;;5067232;28;20268;-60
2021/05/04 00:09:25;;;;;;;3.53;3.23;;;9.90;1.00;;;;;;5074545;28;20285;-62
2021/05/04 00:11:51;;;;;;;3.67;3.37;;;9.90;1.00;;;;;;5081162;28;20644;-62
2021/05/04 00:14:17;;;;;;;4.70;3.10;;;9.90;1.00;;;;;;5082763;28;20229;-60
2021/05/04 00:16:43;;;;;;;4.70;3.47;;;9.90;1.00;;;;;;5069436;28;20197;-60
2021/05/04 00:19:09;;;;;;;4.53;3.70;;;9.90;1.00;;;;;;5070086;28;20454;-61
2021/05/04 00:21:35;;;;;;;6.00;3.17;;;9.90;1.00;;;;;;5079143;28;20179;-61
2021/05/04 00:24:00;;;;;;;4.70;3.47;;;10.00;1.00;;;;;;5081806;28;20192;-60
2021/05/04 00:26:26;;;;;;;4.63;3.53;;;9.90;1.00;;;;;;5081736;28;20684;-62
2021/05/04 00:28:51;;;;;;;4.43;3.30;;;9.90;1.00;;;;;;5071401;28;20184;-62
2021/05/04 00:31:17;;;;;;;3.97;3.57;;;9.90;1.00;;;;;;5075500;28;20583;-60
2021/05/04 00:33:42;;;;;;;3.60;3.30;;;9.90;1.00;;;;;;5084041;28;20181;-60
2021/05/04 00:36:08;;;;;;;3.53;3.10;;;9.90;1.00;;;;;;5090181;28;20209;-61
2021/05/04 00:38:34;;;;;;;3.47;3.13;;;9.90;1.00;;;;;;5080542;28;20208;-61
2021/05/04 00:41:00;;;;;;;4.40;3.97;;;9.80;1.00;;;;;;5076337;28;20976;-61
2021/05/04 00:43:27;;;;;;;4.80;3.13;;;9.80;1.00;;;;;;5075026;28;20187;-61
2021/05/04 00:45:53;;;;;;;4.60;4.03;;;9.80;1.00;;;;;;5074883;28;20621;-59
2021/05/04 00:48:19;;;;;;;4.07;3.53;;;9.80;1.00;;;;;;5073463;28;20443;-62
2021/05/04 00:50:45;;;;;;;4.43;3.97;;;9.70;1.00;;;;;;5071958;28;20449;-61
2021/05/04 00:53:11;;;;;;;4.00;3.60;;;9.80;1.00;;;;;;5071777;28;20218;-60
2021/05/04 00:55:38;;;;;;;3.63;3.27;;;9.60;1.00;;;;;;5083353;28;20189;-60
2021/05/04 00:58:03;;;;;;;4.27;3.87;;;9.70;1.00;;;;;;5073100;28;20220;-60
2021/05/04 01:00:29;;;;;;;3.73;3.30;;;9.70;1.00;;;;;;5075532;28;20491;-61
2021/05/04 01:02:57;;;;;;;3.90;3.50;;;9.60;1.00;;;;;;5074717;28;20195;-60
2021/05/04 01:05:23;;;;;;;5.33;4.60;;;9.60;1.00;;;;;;5085194;28;20250;-62
2021/05/04 01:07:49;;;;;;;4.07;3.50;;;9.60;1.00;;;;;;5073115;28;20446;-61
2021/05/04 01:10:14;;;;;;;4.50;4.10;;;9.50;1.00;;;;;;5082092;28;20441;-60
2021/05/04 01:12:40;;;;;;;7.30;3.97;;;9.60;1.00;;;;;;5077842;28;20262;-62
2021/05/04 01:15:06;;;;;;;4.43;4.00;;;9.50;1.00;;;;;;5072990;28;20267;-61
2021/05/04 01:17:32;;;;;;;4.83;3.90;;;9.50;1.00;;;;;;5078487;28;20191;-61
2021/05/04 01:19:57;;;;;;;3.93;3.53;;;9.50;1.00;;;;;;5084059;28;20438;-61
2021/05/04 01:22:23;;;;;;;4.80;4.27;;;9.50;1.00;;;;;;5073753;28;20189;-62
2021/05/04 01:24:49;;;;;;;4.30;3.73;;;9.50;1.00;;;;;;5068883;28;20256;-61
2021/05/04 01:27:15;;;;;;;4.50;4.10;;;9.50;1.00;;;;;;5090748;28;20635;-62
2021/05/04 01:29:41;;;;;;;5.87;4.30;;;9.40;1.00;;;;;;5079426;28;20213;-62
2021/05/04 01:32:07;;;;;;;7.90;3.87;;;9.50;1.00;;;;;;5078185;28;20427;-62
2021/05/04 01:34:34;;;;;;;4.23;3.83;;;9.50;1.00;;;;;;5078963;28;20443;-62
2021/05/04 01:37:00;;;;;;;4.53;4.13;;;9.50;1.00;;;;;;5072673;28;20428;-62
2021/05/04 01:39:42;;;;;;;7.90;4.90;;;9.40;1.00;;;;;;5072512;28;20493;-61
2021/05/04 01:42:07;;;;;;;4.00;3.60;;;9.40;1.00;;;;;;5071495;28;20180;-60
2021/05/04 01:44:33;;;;;;;5.53;4.07;;;9.40;1.00;;;;;;5071915;28;20971;-62
2021/05/04 01:46:59;;;;;;;4.90;3.90;;;9.50;1.00;;;;;;5074122;28;20582;-60
2021/05/04 01:49:25;;;;;;;4.60;4.10;;;9.50;1.00;;;;;;5076294;28;20216;-61
2021/05/04 01:51:52;;;;;;;4.67;4.00;;;9.30;1.00;;;;;;5070913;28;20181;-61
2021/05/04 01:54:17;;;;;;;6.03;4.83;;;9.40;1.00;;;;;;5088984;28;20443;-60
2021/05/04 01:56:43;;;;;;;4.93;3.93;;;9.50;1.00;;;;;;5078681;28;20442;-62
2021/05/04 01:59:08;;;;;;;4.73;4.03;;;9.50;1.00;;;;;;5072123;28;20260;-61
2021/05/04 02:01:34;;;;;;;4.10;3.80;;;9.50;1.00;;;;;;5070698;28;20197;-60
2021/05/04 02:03:59;;;;;;;4.07;3.70;;;9.50;1.00;;;;;;5072866;28;20191;-61
2021/05/04 02:06:25;;;;;;;5.43;4.27;;;9.50;1.00;;;;;;5073449;28;20293;-61
2021/05/04 02:08:50;;;;;;;4.80;4.40;;;9.40;1.00;;;;;;5068971;28;20653;-61
2021/05/04 02:11:16;;;;;;;5.17;4.70;;;9.40;1.00;;;;;;5070757;28;20192;-60
2021/05/04 02:13:42;;;;;;;6.87;5.07;;;9.40;1.00;;;;;;5084910;28;20262;-61
2021/05/04 02:16:08;;;;;;;4.77;4.37;;;9.30;1.00;;;;;;5091124;28;20680;-61
2021/05/04 02:18:33;;;;;;;4.77;4.27;;;9.30;1.00;;;;;;5063926;28;20329;-62
2021/05/04 02:20:59;;;;;;;6.90;4.40;;;9.30;1.00;;;;;;5076120;28;20236;-61
2021/05/04 02:23:24;;;;;;;5.47;4.17;;;9.30;1.00;;;;;;5068578;28;20192;-61
2021/05/04 02:25:51;;;;;;;6.80;4.53;;;9.30;1.00;;;;;;5077412;28;20231;-60
2021/05/04 02:28:16;;;;;;;4.87;4.10;;;9.30;1.00;;;;;;5069810;28;20172;-59
2021/05/04 02:30:42;;;;;;;7.03;4.57;;;9.30;1.00;;;;;;5069958;28;20512;-61
2021/05/04 02:33:08;;;;;;;5.17;4.67;;;9.30;1.00;;;;;;5078080;28;20183;-61
2021/05/04 02:35:33;;;;;;;5.27;4.10;;;9.30;1.00;;;;;;5085015;28;20189;-61
2021/05/04 02:37:59;;;;;;;5.90;4.53;;;9.40;1.00;;;;;;5076382;28;20191;-61
2021/05/04 02:40:24;;;;;;;5.17;4.10;;;9.30;1.00;;;;;;5091162;28;20252;-60
2021/05/04 02:42:50;;;;;;;6.10;5.07;;;9.30;1.00;;;;;;5078804;28;20580;-61
2021/05/04 02:45:16;;;;;;;5.03;4.50;;;9.30;1.00;;;;;;5083455;28;20662;-60
2021/05/04 02:47:41;;;;;;;6.33;4.03;;;9.40;1.00;;;;;;5069762;28;20664;-61
2021/05/04 02:50:07;;;;;;;6.57;5.13;;;9.40;1.00;;;;;;5073781;28;20300;-60
2021/05/04 02:52:33;;;;;;;8.07;4.90;;;9.50;1.00;;;;;;5084470;28;20175;-61
2021/05/04 02:54:59;;;;;;;9.10;4.63;;;9.50;1.00;;;;;;5073746;28;20458;-62
2021/05/04 02:57:24;;;;;;;5.80;5.00;;;9.50;1.00;;;;;;5069863;28;20225;-59
2021/05/04 02:59:50;;;;;;;5.23;4.73;;;9.60;1.00;;;;;;5074177;28;20855;-61
2021/05/04 03:02:16;;;;;;;7.33;4.47;;;9.60;1.00;;;;;;5082538;28;20192;-63
2021/05/04 03:04:41;;;;;;;5.00;4.50;;;9.70;1.00;;;;;;5070119;28;20188;-61
2021/05/04 03:07:07;;;;;;;6.03;5.23;;;9.70;1.00;;;;;;5072279;28;20192;-61
2021/05/04 03:09:33;;;;;;;4.53;4.13;;;9.80;1.00;;;;;;5079315;28;20194;-61
2021/05/04 03:11:59;;;;;;;4.90;4.20;;;9.80;1.00;;;;;;5077135;28;20446;-62
2021/05/04 03:14:25;;;;;;;4.50;4.00;;;9.90;1.00;;;;;;5070878;28;20249;-62
2021/05/04 03:16:52;;;;;;;5.00;4.50;;;9.90;1.00;;;;;;5076079;28;20941;-61
2021/05/04 03:19:17;;;;;;;4.97;4.47;;;9.90;1.00;;;;;;5069982;28;20550;-61
2021/05/04 03:21:43;;;;;;;5.43;4.83;;;9.90;1.00;;;;;;5069330;28;20465;-60
2021/05/04 03:24:09;;;;;;;5.43;4.63;;;10.00;1.00;;;;;;5072631;28;20193;-62
2021/05/04 03:26:34;;;;;;;5.50;4.57;;;10.10;1.00;;;;;;5074123;28;20220;-61
2021/05/04 03:29:00;;;;;;;9.23;5.33;;;10.20;1.00;;;;;;5070438;28;20995;-60
2021/05/04 03:31:25;;;;;;;5.20;4.57;;;10.20;1.00;;;;;;5074462;28;20218;-61
2021/05/04 03:33:51;;;;;;;7.73;5.00;;;10.20;1.00;;;;;;5079481;28;20515;-60
2021/05/04 03:36:17;;;;;;;6.57;4.60;;;10.20;1.00;;;;;;5072700;28;20612;-61
2021/05/04 03:38:42;;;;;;;6.67;4.30;;;10.10;1.00;;;;;;5081519;28;20186;-60
2021/05/04 03:41:08;;;;;;;6.90;5.20;;;10.00;1.00;;;;;;5072665;28;20267;-61
2021/05/04 03:43:35;;;;;;;4.50;4.10;;;10.00;1.00;;;;;;5069918;28;20545;-61
2021/05/04 03:46:00;;;;;;;8.07;5.00;;;10.00;1.00;;;;;;5069030;28;20214;-62
2021/05/04 03:48:26;;;;;;;7.80;5.00;;;9.90;1.00;;;;;;5087303;28;20774;-61
2021/05/04 03:50:51;;;;;;;5.17;4.63;;;9.90;1.00;;;;;;5069532;28;20212;-61
2021/05/04 03:53:17;;;;;;;6.00;5.40;;;9.90;1.00;;;;;;5074795;28;20185;-62
2021/05/04 03:55:45;;;;;;;5.73;4.97;;;10.00;1.00;;;;;;5071234;28;20214;-60
2021/05/04 03:58:11;;;;;;;6.50;5.43;;;10.00;1.00;;;;;;5067948;28;20279;-61
2021/05/04 04:00:36;;;;;;;6.63;5.17;;;10.10;1.00;;;;;;5069903;28;20860;-61
2021/05/04 04:03:02;;;;;;;6.33;4.73;;;10.10;1.00;;;;;;5069248;28;20803;-61
2021/05/04 04:05:28;;;;;;;6.40;5.80;;;10.20;1.00;;;;;;5068305;28;20356;-61
2021/05/04 04:07:53;;;;;;;6.67;5.10;;;10.20;1.00;;;;;;5070214;28;20180;-63
2021/05/04 04:10:19;;;;;;;5.73;5.00;;;10.30;1.00;;;;;;5075139;28;20280;-63
2021/05/04 04:12:45;;;;;;;6.60;5.57;;;;;;;;;;5091969;28;20583;-64
2021/05/04 04:15:12;;;;;;;9.43;5.47;;;10.50;1.00;;;;;;5071743;28;20232;-63
2021/05/04 04:17:37;;;;;;;6.00;5.40;;;10.50;1.00;;;;;;5073468;28;20440;-63
2021/05/04 04:20:05;;;;;;;8.07;5.80;;;10.60;1.00;;;;;;5073204;28;20469;-62
2021/05/04 04:22:30;;;;;;;8.77;5.67;;;10.80;1.00;;;;;;5081769;28;20647;-63
2021/05/04 04:24:56;;;;;;;5.90;5.30;;;10.90;1.00;;;;;;5070730;28;20457;-62
2021/05/04 04:27:22;;;;;;;6.70;5.47;;;11.00;1.00;;;;;;5089819;28;20199;-59
2021/05/04 04:29:48;;;;;;;7.23;5.97;;;11.10;1.00;;;;;;5093966;28;20228;-60
2021/05/04 04:32:14;;;;;;;8.23;5.90;;;11.10;1.00;;;;;;5085472;28;20443;-59
2021/05/04 04:34:39;;;;;;;7.00;5.47;;;11.30;1.00;;;;;;5075864;28;20443;-59
2021/05/04 04:37:05;;;;;;;6.07;5.47;;;11.40;1.00;;;;;;5083361;28;20184;-59
2021/05/04 04:39:31;;;;;;;7.80;6.30;;;11.40;1.00;;;;;;5074779;28;20186;-60
2021/05/04 04:41:56;;;;;;;6.47;5.50;;;11.50;1.00;;;;;;5073405;28;20642;-60
2021/05/04 04:44:22;;;;;;;6.87;5.93;;;11.70;1.00;;;;;;5081474;28;20615;-59
2021/05/04 04:46:48;;;;;;;7.27;5.20;;;11.90;1.00;;;;;;5091096;28;20201;-60
2021/05/04 04:49:18;;;;;;;5.53;4.93;;;12.00;1.00;;;;;;5074776;28;20208;-59
2021/05/04 04:51:45;;;;;;;6.57;5.40;;;12.30;1.00;;;;;;5070045;28;20194;-59
2021/05/04 04:54:11;;;;;;;7.30;6.37;;;12.30;1.00;;;;;;5078118;28;20447;-61
2021/05/04 04:56:37;;;;;;;7.40;5.57;;;12.50;1.00;;;;;;5073030;28;20532;-60
2021/05/04 04:59:04;;;;;;;8.57;5.90;;;12.50;1.00;;;;;;5075412;28;20952;-59
2021/05/04 05:01:30;;;;;;;7.20;6.10;;;12.50;1.00;;;;;;5073479;28;20972;-61
2021/05/04 05:03:55;;;;;;;7.57;6.17;;;12.80;1.00;;;;;;5074085;28;20448;-61
2021/05/04 05:06:21;;;;;;;5.90;5.40;;;12.80;1.00;;;;;;5074362;28;20230;-60
2021/05/04 05:08:51;;;;;;;7.77;5.20;;;12.70;1.00;;;;;;5077769;28;20655;-58
2021/05/04 05:11:17;;;;;;;6.07;5.47;;;12.90;1.00;;;;;;5075815;28;20433;-59
2021/05/04 05:13:44;;;;;;;6.97;5.93;;;12.90;1.00;;;;;;5093290;28;20508;-59
2021/05/04 05:16:10;;;;;;;5.83;5.23;;;13.00;1.00;;;;;;5092860;28;20425;-58
2021/05/04 05:18:35;;;;;;;6.07;5.23;;;13.10;1.00;;;;;;5077502;28;20518;-59
2021/05/04 05:21:01;;;;;;;6.17;5.57;;;13.00;1.00;;;;;;5076200;28;20189;-60
2021/05/04 05:23:27;;;;;;;5.73;5.10;;;13.00;1.00;;;;;;5069957;28;20227;-60
2021/05/04 05:25:53;;;;;;;9.77;5.90;;;13.10;1.00;;;;;;5084931;28;20524;-60
2021/05/04 05:28:18;;;;;;;6.47;5.80;;;13.00;1.00;;;;;;5077267;28;20175;-58
2021/05/04 05:30:44;;;;;;;9.00;5.80;;;13.10;1.00;;;;;;5072164;28;20700;-59
2021/05/04 05:33:10;;;;;;;6.33;5.20;;;13.20;1.00;;;;;;5072385;28;20582;-61
2021/05/04 05:35:36;;;;;;;6.33;5.57;;;13.30;1.00;;;;;;5072975;28;20590;-59
2021/05/04 05:38:04;;;;;;;7.40;4.90;;;13.40;1.00;;;;;;5074603;28;20236;-60
2021/05/04 05:40:30;;;;;;;5.93;5.33;;;13.30;1.00;;;;;;5072125;28;22299;-59
2021/05/04 05:42:55;;;;;;;6.83;5.27;;;13.40;1.00;;;;;;5092322;28;20475;-59
2021/05/04 05:45:21;;;;;;;5.90;5.30;;;13.40;1.00;;;;;;5081749;28;20230;-59
2021/05/04 05:47:46;;;;;;;6.40;5.03;;;13.40;1.00;;;;;;5071408;28;20266;-58
2021/05/04 05:50:12;;;;;;;6.93;4.53;;;13.40;1.00;;;;;;5082317;28;20640;-59
2021/05/04 05:52:37;;;;;;;4.77;4.27;;;13.50;1.00;;;;;;5074559;28;20177;-61
2021/05/04 05:55:03;;;;;;;5.07;4.40;;;13.60;1.00;;;;;;5077213;28;20672;-60
2021/05/04 05:57:29;;;;;;;5.70;4.90;;;13.60;1.00;;;;;;5071645;28;20198;-59
2021/05/04 05:59:55;;;;;;;7.20;4.97;;;;;;;;;;5070507;28;20441;-60
2021/05/04 06:02:20;;;;;;;7.13;5.87;;;13.60;1.00;;;;;;5073997;28;20178;-58
2021/05/04 06:04:46;;;;;;;6.23;5.00;;;13.70;1.00;;;;;;5075903;28;21028;-58
2021/05/04 06:07:11;;;;;;;5.50;4.17;;;13.70;1.00;;;;;;5091923;28;20183;-59
2021/05/04 06:09:38;;;;;;;5.30;4.83;;;13.80;1.00;;;;;;5078497;28;20198;-59
2021/05/04 06:12:04;;;;;;;4.87;4.37;;;13.80;1.00;;;;;;5071099;28;20615;-60
2021/05/04 06:14:30;;;;;;;6.50;4.97;;;13.90;1.00;;;;;;5077091;28;20442;-61
2021/05/04 06:16:55;;;;;;;5.43;4.80;;;14.10;1.00;;;;;;5076062;28;20950;-60
2021/05/04 06:19:21;;;;;;;6.90;4.53;;;14.00;1.00;;;;;;5081269;28;20210;-58
2021/05/04 06:21:47;;;;;;;5.80;5.17;;;15.90;1.00;;;;;;5071637;28;20237;-59
2021/05/04 06:24:12;;;;;;;5.33;4.63;;;14.10;1.00;;;;;;5075154;28;20524;-59
2021/05/04 06:26:38;;;;;;;5.00;4.30;;;14.20;1.00;;;;;;5069722;28;20290;-60
2021/05/04 06:29:05;;;;;;;5.03;4.20;;;14.40;1.00;;;;;;5071332;28;20541;-60
2021/05/04 06:31:31;;;;;;;6.20;4.47;;;14.40;1.00;;;;;;5074525;28;20533;-58
2021/05/04 06:33:56;;;;;;;5.40;4.60;;;14.40;1.00;;;;;;5070840;28;20446;-60
2021/05/04 06:36:22;;;;;;;6.73;4.50;;;14.30;1.00;;;;;;5082216;28;20197;-60
2021/05/04 06:38:48;;;;;;;4.77;4.37;;;14.40;1.00;;;;;;5078948;28;20189;-59
2021/05/04 06:41:13;;;;;;;5.40;4.13;;;14.50;1.00;;;;;;5077444;28;20388;-59
2021/05/04 06:43:39;;;;;;;5.27;4.83;;;14.30;1.00;;;;;;5071041;28;20305;-58
2021/05/04 06:46:05;;;;;;;5.20;4.60;;;14.30;1.00;;;;;;5072395;28;20210;-60
2021/05/04 06:48:31;;;;;;;4.63;4.23;;;14.30;1.00;;;;;;5072357;28;20175;-58
2021/05/04 06:50:57;;;;;;;5.07;4.47;;;14.30;1.00;;;;;;5082551;28;20421;-59
2021/05/04 06:53:24;;;;;;;4.33;4.03;;;14.30;1.00;;;;;;5088519;28;20175;-60
2021/05/04 06:55:50;;;;;;;5.80;4.33;;;14.50;1.00;;;;;;5070254;28;20438;-58
2021/05/04 06:58:15;;;;;;;4.70;4.30;;;14.60;1.00;;;;;;5070354;28;20428;-59
2021/05/04 07:00:41;;;;;;;6.10;4.60;;;16.20;1.00;;;;;;5073861;28;20325;-59
2021/05/04 07:06:36;;;;;;;3.90;3.60;;;14.50;1.00;;;;;;4941922;28;20356;-60
2021/05/04 07:09:01;;;;;;;3.60;3.30;;;14.50;1.00;;;;;;5068509;28;20536;-59
2021/05/04 07:11:27;;;;;;;5.67;3.60;;;14.60;1.00;;;;;;5075110;28;20199;-60
2021/05/04 07:13:58;;;;;;;4.33;4.00;;;14.50;1.00;;;;;;5075391;28;20189;-60
2021/05/04 07:16:25;;;;;;;4.50;3.70;;;14.60;1.00;;;;;;5071176;28;20501;-60
2021/05/04 07:18:54;;;;;;;5.83;4.33;;;14.70;1.00;;;;;;5074071;28;20440;-59
2021/05/04 07:21:21;;;;;;;4.20;3.80;;;14.80;1.00;;;;;;5077940;28;20453;-61
2021/05/04 07:23:49;;;;;;;5.07;4.30;;;14.80;1.00;;;;;;5079914;28;20522;-59
2021/05/04 07:26:16;;;;;;;5.77;3.83;;;14.90;1.00;;;;;;5071813;28;20461;-60
2021/05/04 07:28:43;;;;;;;3.70;3.17;;;14.90;1.00;;;;;;5072911;28;20860;-60
2021/05/04 07:33:58;;;;;;;4.20;3.80;;;15.20;1.00;;;;;;5073715;28;20854;-60
2021/05/04 07:36:26;;;;;;;5.30;3.63;;;15.50;1.00;;;;;;5068899;28;20449;-62
2021/05/04 07:38:52;;;;;;;4.40;3.93;;;15.60;1.00;;;;;;5075187;28;20464;-58
2021/05/04 07:41:17;;;;;;;5.90;3.80;;;15.60;1.00;;;;;;5078674;28;20445;-60
2021/05/04 07:43:43;;;;;;;4.67;4.00;;;15.80;1.00;;;;;;5076762;28;20194;-61
2021/05/04 07:49:43;;;;;;;4.10;3.80;;;15.80;1.00;;;;;;4982882;28;20193;-62
2021/05/04 07:52:09;;;;;;;4.67;4.27;;;15.90;1.00;;;;;;5081891;28;20420;-61
2021/05/04 07:54:35;;;;;;;4.57;3.90;;;15.80;1.00;;;;;;5073907;28;20449;-61
2021/05/04 07:57:01;;;;;;;5.00;3.70;;;15.90;1.00;;;;;;5069421;28;20425;-60
2021/05/04 07:59:26;;;;;;;4.30;3.90;;;16.00;1.00;;;;;;5067044;28;20206;-61
2021/05/04 08:01:52;;;;;;;4.90;3.60;;;16.10;1.00;;;;;;5075875;28;20540;-61
2021/05/04 08:04:17;;;;;;;3.80;3.50;;;16.30;1.00;;;;;;5070407;28;20768;-61
2021/05/04 08:06:43;;;;;;;3.63;3.30;;;16.30;1.00;;;;;;5075231;28;20198;-59
2021/05/04 08:09:08;;;;;;;3.67;3.37;;;16.30;1.00;;;;;;5067899;28;20186;-61
2021/05/04 08:11:35;;;;;;;5.83;2.90;;;16.40;1.00;;;;;;5069028;28;20182;-60
2021/05/04 08:14:02;;;;;;;3.20;2.90;;;16.50;1.00;;;;;;5069926;28;20263;-61
2021/05/04 08:16:30;;;;;;;3.07;2.80;;;16.50;1.00;;;;;;5083790;28;20456;-61
2021/05/04 08:18:55;;;;;;;4.40;3.27;;;16.50;1.00;;;;;;5071452;28;20434;-60
2021/05/04 08:21:22;;;;;;;3.97;3.60;;;16.60;1.00;;;;;;5075521;28;20944;-60
2021/05/04 08:23:47;;;;;;;4.27;3.50;;;16.50;1.00;;;;;;5073037;28;20198;-61
2021/05/04 08:26:14;;;;;;;5.53;3.70;;;16.50;1.00;;;;;;5069851;28;20462;-60
2021/05/04 08:28:40;;;;;;;3.07;2.77;;;16.60;1.00;;;;;;5068570;28;20672;-61
2021/05/04 08:31:06;;;;;;;3.53;3.23;;;16.50;1.00;;;;;;5072274;28;20478;-59
2021/05/04 08:33:31;;;;;;;7.80;3.67;;;16.60;1.00;;;;;;5070386;28;20186;-61
2021/05/04 08:35:57;;;;;;;4.20;3.80;;;16.60;1.00;;;;;;5069731;28;20232;-60
2021/05/04 08:38:22;;;;;;;3.97;3.30;;;16.70;1.00;;;;;;5076685;28;20193;-60
2021/05/04 08:40:48;;;;;;;3.70;2.93;;;16.60;1.00;;;;;;5082076;28;20175;-61
2021/05/04 08:43:20;;;;;;;3.50;3.20;;;16.70;1.00;;;;;;5085233;28;20183;-61
2021/05/04 08:45:56;;;;;;;4.67;3.03;;;16.70;1.00;;;;;;5075801;28;20207;-61
2021/05/04 08:48:24;;;;;;;3.00;2.70;;;16.80;1.00;;;;;;5069968;28;20922;-61
2021/05/04 08:50:50;;;;;;;2.97;2.67;;;16.90;1.00;;;;;;5087730;28;20748;-59
2021/05/04 08:53:16;;;;;;;3.57;3.27;;;17.10;1.00;;;;;;5079366;28;20459;-60
2021/05/04 08:55:41;;;;;;;3.07;2.60;;;17.00;1.00;;;;;;5089770;28;20441;-61
2021/05/04 08:58:07;;;;;;;5.70;3.23;;;16.80;1.00;;;;;;5073806;28;20199;-61
2021/05/04 09:00:32;;;;;;;3.20;2.90;;;16.90;1.00;;;;;;5079795;28;20279;-62
2021/05/04 09:03:07;;;;;;;4.97;2.87;;;16.80;1.00;;;;;;5075685;28;20211;-61
2021/05/04 09:05:53;;;;;;;3.00;2.73;;;16.80;1.00;;;;;;5074286;28;20605;-60
2021/05/04 09:08:51;;;;;;;3.20;2.90;;;16.90;1.00;;;;;;5079025;28;20439;-61
2021/05/04 09:11:19;;;;;;;2.60;2.40;;;17.00;1.00;;;;;;5072940;28;20795;-60
2021/05/04 09:13:56;;;;;;;3.37;2.90;;;17.50;1.00;;;;;;5084297;28;20432;-61
2021/05/04 09:21:37;;;;;;;2.93;2.70;;;17.60;1.00;;;;;;5092776;28;20190;-60
2021/05/04 09:24:19;;;;;;;4.07;2.63;;;17.50;1.00;;;;;;5086512;28;20449;-61
2021/05/04 09:26:45;;;;;;;3.60;2.80;;;17.40;1.00;;;;;;5069690;28;20642;-62
2021/05/04 09:29:11;;;;;;;5.80;2.40;;;17.40;1.00;;;;;;5075328;28;20461;-60
2021/05/04 09:31:39;;;;;;;3.97;3.10;;;17.40;1.00;;;;;;5083710;28;20440;-62
2021/05/04 09:34:12;;;;;;;3.10;2.80;;;17.50;1.00;;;;;;5081254;28;20178;-63
2021/05/04 09:36:50;;;;;;;2.97;2.67;;;17.40;1.00;;;;;;5080605;28;21017;-60
2021/05/04 09:39:25;;;;;;;5.13;2.83;;;17.30;1.00;;;;;;5085691;28;20986;-62
2021/05/04 09:41:52;;;;;;;3.03;2.67;;;17.10;1.00;;;;;;5082736;28;20440;-60
2021/05/04 09:44:49;;;;;;;3.33;3.03;;;17.00;1.00;;;;;;5072158;28;20579;-62
2021/05/04 09:47:25;;;;;;;3.23;2.97;;;17.10;1.00;;;;;;5081654;28;20459;-61
2021/05/04 09:49:52;;;;;;;3.50;3.20;;;17.20;1.00;;;;;;5075513;28;20428;-61
2021/05/04 09:52:35;;;;;;;6.70;2.80;;;17.20;1.00;;;;;;5084285;28;20471;-61
2021/05/04 09:55:13;;;;;;;3.10;2.90;;;17.30;1.00;;;;;;5086602;28;20441;-60
2021/05/04 09:57:44;;;;;;;2.83;2.63;;;17.30;1.00;;;;;;5072397;28;20431;-62
2021/05/04 10:00:22;;;;;;;2.07;1.97;;;17.00;1.00;;;;;;5074339;28;20820;-61
2021/05/04 10:02:48;;;;;;;2.27;2.10;;;16.80;1.00;;;;;;5071717;28;20433;-61
2021/05/04 10:05:17;;;;;;;2.30;2.17;;;16.60;1.00;;;;;;5074031;28;20801;-60
2021/05/04 10:07:44;;;;;;;2.47;2.37;;;16.60;1.00;;;;;;5074382;28;20441;-60
2021/05/04 10:10:15;;;;;;;2.97;2.20;;;16.60;1.00;;;;;;5071039;28;20438;-60
2021/05/04 10:12:43;;;;;;;2.70;2.27;;;16.60;1.00;;;;;;5084816;28;20759;-61
2021/05/04 10:15:11;;;;;;;2.90;2.60;;;16.80;1.00;;;;;;5077686;28;20441;-60
2021/05/04 10:17:39;;;;;;;3.13;2.13;;;16.60;1.00;;;;;;5072848;28;20473;-59
2021/05/04 10:20:10;;;;;;;2.33;2.13;;;16.30;1.00;;;;;;5091975;28;20524;-60
2021/05/04 10:22:37;;;;;;;2.60;2.40;;;16.10;1.00;;;;;;5081663;28;20453;-59
2021/05/04 10:25:05;;;;;;;2.43;1.90;;;16.20;1.00;;;;;;5074361;28;20478;-63
2021/05/04 10:27:33;;;;;;;4.13;2.17;;;16.30;1.00;;;;;;5079648;28;20490;-59
2021/05/04 10:30:01;;;;;;;3.53;2.00;;;16.40;1.00;;;;;;5070959;28;20469;-61
2021/05/04 10:32:49;;;;;;;2.70;2.27;;;16.30;1.00;;;;;;5071636;28;20470;-60
2021/05/04 10:35:33;;;;;;;2.90;1.87;;;16.30;1.00;;;;;;5084824;28;20432;-59
2021/05/04 10:38:10;;;;;;;4.80;2.30;;;16.10;1.00;;;;;;5088736;28;20445;-61
2021/05/04 10:40:57;;;;;;;1.73;1.63;;;16.10;1.00;;;;;;5078383;28;20426;-59
2021/05/04 10:43:22;;;;;;;1.60;1.50;;;16.40;1.00;;;;;;5073951;28;20478;-60
2021/05/04 10:45:53;;;;;;;1.93;1.73;;;16.40;1.00;;;;;;5075922;28;20871;-61
2021/05/04 10:48:37;;;;;;;2.50;1.87;;;16.50;1.00;;;;;;5067289;28;20206;-61
2021/05/04 10:51:05;;;;;;;2.13;1.60;;;16.50;1.00;;;;;;5085980;28;20433;-62
2021/05/04 10:54:09;;;;;;;1.60;1.43;;;16.70;1.00;;;;;;5091090;28;20930;-61
2021/05/04 10:56:42;;;;;;;1.40;1.30;;;16.90;1.00;;;;;;4991357;28;20437;-60
2021/05/04 10:59:10;;;;;;;1.63;1.40;;;17.20;1.00;;;;;;5000957;28;20535;-62
2021/05/04 11:01:36;;;;;;;1.60;1.50;;;17.20;1.00;;;;;;5050474;28;20448;-62
2021/05/04 11:04:04;;;;;;;2.60;1.80;;;17.20;1.00;;;;;;5081485;28;20453;-61
2021/05/04 11:06:29;;;;;;;2.60;1.80;;;17.30;1.00;;;;;;5081430;28;20198;-61
2021/05/04 11:08:55;;;;;;;1.73;1.47;;;17.30;1.00;;;;;;5089762;28;20519;-60
2021/05/04 11:11:41;;;;;;;2.23;1.60;;;17.30;1.00;;;;;;5090645;28;20682;-61
2021/05/04 11:14:18;;;;;;;1.67;1.57;;;17.40;1.00;;;;;;5080839;28;20195;-61
2021/05/04 11:17:00;;;;;;;2.40;1.60;;;17.50;1.00;;;;;;5071633;28;20448;-61
2021/05/04 11:19:29;;;;;;;2.53;1.47;;;17.60;1.00;;;;;;5089821;28;20440;-61
2021/05/04 11:21:58;;;;;;;2.20;1.40;;;17.60;1.00;;;;;;5069527;28;20501;-61
2021/05/04 11:24:35;;;;;;;1.30;1.20;;;17.60;1.00;;;;;;5069934;28;20488;-61
2021/05/04 11:27:04;;;;;;;4.13;2.03;;;17.60;1.00;;;;;;5069320;28;20466;-62
2021/05/04 11:29:30;;;;;;;1.60;1.50;;;17.60;1.00;;;;;;5089424;28;20511;-61
2021/05/04 11:32:13;;;;;;;3.60;2.40;;;17.70;1.00;;;;;;5076075;28;20441;-61
2021/05/04 11:34:51;;;;;;;1.83;1.50;;;17.80;1.00;;;;;;5072264;28;20228;-61
2021/05/04 11:37:20;;;;;;;3.10;2.03;;;18.00;1.00;;;;;;5072805;28;20471;-61
2021/05/04 11:39:52;;;;;;;3.43;2.10;;;17.80;1.00;;;;;;5083669;28;20954;-60
2021/05/04 11:42:29;;;;;;;5.23;2.07;;;17.80;1.00;;;;;;5070354;28;20453;-60
2021/05/04 11:45:09;;;;;;;2.77;1.70;;;17.70;1.00;;;;;;5066903;28;20451;-61
2021/05/04 11:47:36;;;;;;;1.40;1.30;;;17.80;1.00;;;;;;5077553;28;20468;-60
2021/05/04 11:50:05;;;;;;;2.30;1.77;;;18.00;1.00;;;;;;5077375;28;20443;-60
2021/05/04 11:52:31;;;;;;;2.43;2.10;;;18.20;1.00;;;;;;5068845;28;20433;-61
2021/05/04 11:55:26;;;;;;;3.87;1.60;;;18.50;1.00;;;;;;5076752;28;20437;-62
2021/05/04 11:57:59;;;;;;;1.97;1.63;;;19.00;1.00;;;;;;5066719;28;20429;-61
2021/05/04 12:00:28;;;;;;;1.83;1.70;;;18.80;1.00;;;;;;5072908;28;20461;-60
2021/05/04 12:02:53;;;;;;;2.03;1.83;;;18.70;1.00;;;;;;5072537;28;21020;-61
2021/05/04 12:05:28;;;;;;;2.23;2.03;;;18.80;1.00;;;;;;5076656;28;20500;-61
2021/05/04 12:07:54;;;;;;;2.13;1.73;;;18.50;1.00;;;;;;5084495;28;20188;-59
2021/05/04 12:10:23;;;;;;;1.60;1.50;;;18.40;1.00;;;;;;5090094;28;20432;-60
2021/05/04 12:12:53;;;;;;;4.27;2.57;;;18.30;1.00;;;;;;5084753;28;20925;-60
2021/05/04 12:15:21;;;;;;;7.00;1.70;;;18.30;1.00;;;;;;5071547;28;20907;-61
2021/05/04 12:18:21;;;;;;;1.60;1.50;;;18.40;1.00;;;;;;5069654;28;20442;-61
2021/05/04 12:20:48;;;;;;;1.67;1.40;;;18.50;1.00;;;;;;5067890;28;20520;-60
2021/05/04 12:23:28;;;;;;;2.97;1.80;;;18.60;1.00;;;;;;5069871;28;20443;-60
2021/05/04 12:26:16;;;;;;;3.27;1.50;;;18.50;1.00;;;;;;5069004;28;20497;-60
2021/05/04 12:28:54;;;;;;;2.23;1.70;;;18.60;1.00;;;;;;5069919;28;20452;-60
2021/05/04 12:31:28;;;;;;;2.53;2.30;;;18.80;1.00;;;;;;5069276;28;20919;-61
2021/05/04 12:33:55;;;;;;;3.23;1.90;;;18.80;1.00;;;;;;5074835;28;20430;-61
2021/05/04 12:36:41;;;;;;;3.80;2.00;;;18.40;1.00;;;;;;5088496;28;20445;-61
2021/05/04 12:39:18;;;;;;;2.13;1.90;;;18.20;1.00;;;;;;5081839;28;20432;-62
2021/05/04 12:41:48;;;;;;;3.10;2.27;;;18.10;1.00;;;;;;5093705;28;20962;-61
2021/05/04 12:44:25;;;;;;;3.20;2.60;;;17.90;1.00;;;;;;5074000;28;20516;-60
2021/05/04 12:46:53;;;;;;;2.53;2.33;;;17.90;1.00;;;;;;5080980;28;20463;-60
2021/05/04 12:49:19;;;;;;;2.40;2.00;;;17.90;1.00;;;;;;5080531;28;20437;-60
2021/05/04 12:51:53;;;;;;;5.20;2.60;;;18.20;1.00;;;;;;5071747;28;21076;-61
2021/05/04 12:54:21;;;;;;;2.93;2.07;;;18.20;1.00;;;;;;5088804;28;20432;-61
2021/05/04 12:56:53;;;;;;;3.13;2.37;;;18.20;1.00;;;;;;5076934;28;20437;-60
2021/05/04 12:59:45;;;;;;;5.50;2.40;;;18.10;1.00;;;;;;5083467;28;20956;-62
2021/05/04 13:02:20;;;;;;;2.20;1.93;;;18.00;1.00;;;;;;5067857;28;20494;-60
2021/05/04 13:07:35;;;;;;;3.60;2.00;;;18.00;1.00;;;;;;5087415;28;20475;-61
2021/05/04 13:13:06;;;;;;;4.20;2.30;;;17.90;1.00;;;;;;5093138;28;20511;-60
2021/05/04 13:16:33;;;;;;;3.60;2.53;;;18.30;1.00;;;;;;5092442;28;20428;-60
2021/05/04 13:29:34;;;;;;;3.60;2.30;;;17.70;1.00;;;;;;5083526;28;21021;-61
2021/05/04 13:32:16;;;;;;;2.70;2.50;;;17.80;1.00;;;;;;5083694;28;20460;-60
2021/05/04 13:34:49;;;;;;;3.03;2.10;;;18.00;1.00;;;;;;5076274;28;20697;-61
2021/05/04 13:37:20;;;;;;;4.70;2.60;;;18.10;1.00;;;;;;5088873;28;20437;-62
2021/05/04 13:39:57;;;;;;;4.60;2.40;;;18.00;1.00;;;;;;5075962;28;20431;-61